Time;durP1;ratioP1;P1;durP2;ratioP2;P2;SDS_P1;SDS_P2;PMS_P1;PMS_P2;Temp;Humidity;BMP_temperature;BMP_pressure;BME280_temperature;BME280_humidity;BME280_pressure;Samples;Min_cycle;Max_cycle;Signal;HPM_P1;HPM_P2
2021/07/12 00:00:32;;;;;;;;;9.50;6.25;;;;;-146.80;100.00;64830.25;5078811;28;45369;-48
2021/07/12 00:02:59;;;;;;;;;7.25;6.00;;;;;-146.80;100.00;64830.25;5076438;28;45464;-53
2021/07/12 00:05:25;;;;;;;;;7.00;6.75;;;;;-146.80;100.00;64830.25;5077926;28;46261;-52
2021/07/12 00:07:51;;;;;;;;;5.00;5.00;;;;;-146.80;100.00;64830.25;5078090;28;45438;-54
2021/07/12 00:10:20;;;;;;;;;6.75;6.75;;;;;-146.80;100.00;64830.25;5069460;28;45491;-52
2021/07/12 00:12:46;;;;;;;;;6.00;5.50;;;;;-146.80;100.00;64830.25;5055985;28;45644;-50
2021/07/12 00:15:16;;;;;;;;;4.75;4.75;;;;;-146.80;100.00;64830.25;5057737;28;46260;-53
2021/07/12 00:17:42;;;;;;;;;6.75;6.25;;;;;-146.80;100.00;64830.25;5057390;28;45351;-54
2021/07/12 00:20:09;;;;;;;;;5.25;4.75;;;;;-146.80;100.00;64830.25;5057659;28;45290;-49
2021/07/12 00:22:34;;;;;;;;;5.00;5.00;;;;;-146.80;100.00;64830.25;5090568;27;45272;-51
2021/07/12 00:25:00;;;;;;;;;5.00;4.00;;;;;-146.80;100.00;64830.25;5090036;27;46077;-54
2021/07/12 00:27:26;;;;;;;;;6.25;5.00;;;;;-146.80;100.00;64830.25;5057583;28;45807;-55
2021/07/12 00:29:52;;;;;;;;;6.00;4.00;;;;;-146.80;100.00;64830.25;5057864;28;45259;-48
2021/07/12 00:32:18;;;;;;;;;4.50;4.50;;;;;-146.80;100.00;64830.25;5057744;28;45454;-53
2021/07/12 00:34:43;;;;;;;;;6.00;4.75;;;;;-146.80;100.00;64830.25;5057701;28;46738;-55
2021/07/12 00:37:09;;;;;;;;;5.00;5.00;;;;;-146.80;100.00;64830.25;5057007;28;45382;-54
2021/07/12 00:39:34;;;;;;;;;4.00;4.00;;;;;-146.80;100.00;64830.25;5057649;28;45338;-56
2021/07/12 00:41:59;;;;;;;;;5.00;5.00;;;;;-146.80;100.00;64830.25;5057737;28;45562;-55
2021/07/12 00:44:26;;;;;;;;;4.75;4.75;;;;;-146.80;100.00;64830.25;5057227;28;46108;-55
2021/07/12 00:46:53;;;;;;;;;7.25;4.25;;;;;-146.80;100.00;64830.25;5057480;28;45442;-54
2021/07/12 00:49:18;;;;;;;;;4.75;3.50;;;;;-146.80;100.00;64830.25;5090041;27;45238;-55
2021/07/12 00:51:44;;;;;;;;;5.25;4.00;;;;;-146.80;100.00;64830.25;5057890;28;45243;-57
2021/07/12 00:54:10;;;;;;;;;3.75;3.75;;;;;-146.80;100.00;64830.25;5055689;28;47089;-54
2021/07/12 00:56:35;;;;;;;;;5.75;5.00;;;;;-146.80;100.00;64830.25;5057202;28;45160;-56
2021/07/12 00:59:01;;;;;;;;;7.00;5.00;;;;;-146.80;100.00;64830.25;5055978;28;45446;-54
2021/07/12 01:01:26;;;;;;;;;5.00;5.00;;;;;-146.80;100.00;64830.25;5057567;28;45239;-53
2021/07/12 01:03:51;;;;;;;;;5.75;4.25;;;;;-146.80;100.00;64830.25;5055356;28;48591;-56
2021/07/12 01:06:17;;;;;;;;;9.50;5.75;;;;;-146.80;100.00;64830.25;5057412;28;45202;-56
2021/07/12 01:08:43;;;;;;;;;4.75;4.75;;;;;-146.80;100.00;64830.25;5057524;28;45428;-58
2021/07/12 01:11:44;;;;;;;;;8.50;7.75;;;;;-146.80;100.00;64830.25;5057126;28;45470;-55
2021/07/12 01:14:12;;;;;;;;;7.50;6.75;;;;;-146.80;100.00;64830.25;5088809;27;46949;-57
2021/07/12 01:17:20;;;;;;;;;8.75;6.00;;;;;-146.80;100.00;64830.25;5056779;28;45364;-52
2021/07/12 01:20:15;;;;;;;;;8.00;6.00;;;;;-146.80;100.00;64830.25;5037631;28;45433;-55
2021/07/12 01:22:46;;;;;;;;;6.50;5.00;;;;;-146.80;100.00;64830.25;5057185;28;45398;-55
2021/07/12 01:25:43;;;;;;;;;7.75;7.75;;;;;-146.80;100.00;64830.25;5071851;28;45298;-57
2021/07/12 01:28:27;;;;;;;;;4.75;4.75;;;;;-146.80;100.00;64830.25;5072287;28;45504;-53
2021/07/12 01:30:52;;;;;;;;;5.00;5.00;;;;;-146.80;100.00;64830.25;5056666;28;45186;-54
2021/07/12 01:33:22;;;;;;;;;3.00;3.00;;;;;-146.80;100.00;64830.25;5057150;28;45422;-53
2021/07/12 01:36:07;;;;;;;;;6.75;5.75;;;;;-146.80;100.00;64830.25;5056619;28;46405;-53
2021/07/12 01:38:39;;;;;;;;;4.00;4.00;;;;;-146.80;100.00;64830.25;5056461;28;45215;-51
2021/07/12 01:41:23;;;;;;;;;4.00;4.00;;;;;-146.80;100.00;64830.25;5072166;28;45770;-52
2021/07/12 01:44:03;;;;;;;;;6.00;6.00;;;;;-146.80;100.00;64830.25;5056800;28;45408;-52
2021/07/12 01:46:33;;;;;;;;;5.50;4.00;;;;;-146.80;100.00;64830.25;5056340;28;45910;-54
2021/07/12 01:49:25;;;;;;;;;4.00;4.00;;;;;-146.80;100.00;64830.25;5088771;27;45437;-54
2021/07/12 01:52:33;;;;;;;;;4.00;4.00;;;;;-146.80;100.00;64830.25;5056333;28;45309;-48
2021/07/12 01:55:03;;;;;;;;;3.00;3.00;;;;;-146.80;100.00;64830.25;5041232;28;45490;-52
2021/07/12 01:58:03;;;;;;;;;4.00;4.00;;;;;-146.80;100.00;64830.25;5054632;28;47490;-49
2021/07/12 02:00:29;;;;;;;;;2.25;2.25;;;;;-146.80;100.00;64830.25;5050540;28;45352;-48
2021/07/12 02:02:58;;;;;;;;;5.00;4.50;;;;;-146.80;100.00;64830.25;5056125;28;45307;-53
2021/07/12 02:05:29;;;;;;;;;6.00;4.75;;;;;-146.80;100.00;64830.25;5056327;28;45284;-53
2021/07/12 02:07:56;;;;;;;;;4.25;4.25;;;;;-146.80;100.00;64830.25;5056007;28;45441;-53
2021/07/12 02:10:25;;;;;;;;;6.50;4.00;;;;;-146.80;100.00;64830.25;5055931;28;45521;-49
2021/07/12 02:12:53;;;;;;;;;4.00;4.00;;;;;-146.80;100.00;64830.25;5054777;28;45442;-50
2021/07/12 02:15:19;;;;;;;;;3.25;3.25;;;;;-146.80;100.00;64830.25;5055456;28;45557;-56
2021/07/12 02:17:50;;;;;;;;;3.00;3.00;;;;;-146.80;100.00;64830.25;5055600;28;45821;-57
2021/07/12 02:20:16;;;;;;;;;4.50;2.50;;;;;-146.80;100.00;64830.25;5056036;28;45450;-56
2021/07/12 02:22:43;;;;;;;;;4.00;3.00;;;;;-146.80;100.00;64830.25;5056134;28;45307;-53
2021/07/12 02:25:14;;;;;;;;;2.50;2.50;;;;;-146.80;100.00;64830.25;5055941;28;45273;-56
2021/07/12 02:27:43;;;;;;;;;2.75;2.75;;;;;-146.80;100.00;64830.25;5055550;28;45497;-56
2021/07/12 02:30:10;;;;;;;;;4.00;4.00;;;;;-146.80;100.00;64830.25;5054348;28;45445;-54
2021/07/12 02:32:37;;;;;;;;;5.00;5.00;;;;;-146.80;100.00;64830.25;5055599;28;45334;-56
2021/07/12 02:35:06;;;;;;;;;5.00;5.00;;;;;-146.80;100.00;64830.25;5087896;27;45721;-53
2021/07/12 02:37:36;;;;;;;;;8.25;7.00;;;;;-146.80;100.00;64830.25;5055434;28;46511;-50
2021/07/12 02:40:02;;;;;;;;;5.00;5.00;;;;;-146.80;100.00;64830.25;5055513;28;45331;-56
2021/07/12 02:42:27;;;;;;;;;6.00;5.00;;;;;-146.80;100.00;64830.25;5055772;28;45922;-54
2021/07/12 02:44:54;;;;;;;;;4.00;4.00;;;;;-146.80;100.00;64830.25;5055855;28;45231;-48
2021/07/12 02:47:19;;;;;;;;;4.25;4.00;;;;;-146.80;100.00;64830.25;5055670;28;48510;-55
2021/07/12 02:49:45;;;;;;;;;6.50;5.00;;;;;-146.80;100.00;64830.25;5054043;28;45222;-55
2021/07/12 02:52:23;;;;;;;;;7.00;6.75;;;;;-146.80;100.00;64830.25;5055537;28;45394;-57
2021/07/12 02:54:51;;;;;;;;;3.50;3.50;;;;;-146.80;100.00;64830.25;5055907;28;45521;-53
2021/07/12 02:57:17;;;;;;;;;5.50;5.50;;;;;-146.80;100.00;64830.25;5087660;27;46081;-55
2021/07/12 02:59:42;;;;;;;;;4.00;4.00;;;;;-146.80;100.00;64830.25;5055245;28;45541;-54
2021/07/12 03:02:07;;;;;;;;;3.25;3.25;;;;;-146.80;100.00;64830.25;5055575;28;45728;-51
2021/07/12 03:04:33;;;;;;;;;5.00;4.25;;;;;-146.80;100.00;64830.25;5055461;28;45576;-52
2021/07/12 03:07:05;;;;;;;;;5.00;4.00;;;;;-146.80;100.00;64830.25;5055345;28;46101;-59
2021/07/12 03:09:35;;;;;;;;;4.00;4.00;;;;;-146.80;100.00;64830.25;5055390;28;45516;-53
2021/07/12 03:12:16;;;;;;;;;7.00;7.00;;;;;-146.80;100.00;64830.25;5053794;28;45343;-54
2021/07/12 03:14:58;;;;;;;;;6.00;5.00;;;;;-146.80;100.00;64830.25;5055361;28;45263;-52
2021/07/12 03:17:27;;;;;;;;;4.00;4.00;;;;;-146.80;100.00;64830.25;5055230;28;47208;-54
2021/07/12 03:19:55;;;;;;;;;5.00;4.00;;;;;-146.80;100.00;64830.25;5055442;28;45343;-56
2021/07/12 03:22:22;;;;;;;;;4.00;4.00;;;;;-146.80;100.00;64830.25;5055355;28;45297;-53
2021/07/12 03:24:50;;;;;;;;;3.25;3.25;;;;;-146.80;100.00;64830.25;5055335;28;45444;-57
2021/07/12 03:27:18;;;;;;;;;4.25;4.25;;;;;-146.80;100.00;64830.25;5057986;28;45547;-56
2021/07/12 03:29:45;;;;;;;;;3.00;3.00;;;;;-146.80;100.00;64830.25;5091113;27;45362;-54
2021/07/12 03:32:13;;;;;;;;;3.25;3.00;;;;;-146.80;100.00;64830.25;5058469;28;45444;-53
2021/07/12 03:34:39;;;;;;;;;5.25;5.00;;;;;-146.80;100.00;64830.25;5058373;28;45428;-57
2021/07/12 03:37:05;;;;;;;;;4.50;4.00;;;;;-146.80;100.00;64830.25;5058251;28;46180;-56
2021/07/12 03:39:32;;;;;;;;;3.75;2.25;;;;;-146.80;100.00;64830.25;5057147;28;45464;-55
2021/07/12 03:41:58;;;;;;;;;3.50;3.00;;;;;-146.80;100.00;64830.25;5091249;27;45391;-57
2021/07/12 03:44:24;;;;;;;;;5.25;4.00;;;;;-146.80;100.00;64830.25;5058684;28;45261;-53
2021/07/12 03:46:50;;;;;;;;;6.50;4.25;;;;;-146.80;100.00;64830.25;5058352;28;45601;-57
2021/07/12 03:49:18;;;;;;;;;4.00;4.00;;;;;-146.80;100.00;64830.25;5061465;28;45705;-56
2021/07/12 03:51:50;;;;;;;;;4.50;3.50;;;;;-146.80;100.00;64830.25;5056411;28;45468;-53
2021/07/12 03:54:18;;;;;;;;;5.00;4.00;;;;;-146.80;100.00;64830.25;5056744;28;45382;-53
2021/07/12 03:56:43;;;;;;;;;6.25;4.25;;;;;-146.80;100.00;64830.25;5057902;28;46125;-54
2021/07/12 03:59:09;;;;;;;;;5.25;4.00;;;;;-146.80;100.00;64830.25;5056811;28;45434;-57
2021/07/12 04:01:35;;;;;;;;;4.00;4.00;;;;;-146.80;100.00;64830.25;5058227;28;45389;-57
2021/07/12 04:04:00;;;;;;;;;5.50;5.50;;;;;-146.80;100.00;64830.25;5058093;28;45588;-55
2021/07/12 04:06:26;;;;;;;;;4.25;4.00;;;;;-146.80;100.00;64830.25;5058108;28;46855;-54
2021/07/12 04:08:51;;;;;;;;;4.00;4.00;;;;;-146.80;100.00;64830.25;5057940;28;45377;-53
2021/07/12 04:11:17;;;;;;;;;4.50;4.50;;;;;-146.80;100.00;64830.25;5058298;28;45487;-53
2021/07/12 04:13:43;;;;;;;;;5.25;3.75;;;;;-146.80;100.00;64830.25;5058223;28;45488;-53
2021/07/12 04:16:09;;;;;;;;;6.25;5.25;;;;;-146.80;100.00;64830.25;5056435;28;45981;-57
2021/07/12 04:18:34;;;;;;;;;4.25;4.25;;;;;-146.80;100.00;64830.25;5057687;28;45340;-57
2021/07/12 04:21:03;;;;;;;;;4.50;4.50;;;;;-146.80;100.00;64830.25;5057838;28;45344;-57
2021/07/12 04:23:29;;;;;;;;;5.75;5.75;;;;;-146.80;100.00;64830.25;5057908;28;45525;-55
2021/07/12 04:25:55;;;;;;;;;3.00;3.00;;;;;-146.80;100.00;64830.25;5057798;28;46019;-55
2021/07/12 04:28:20;;;;;;;;;5.00;5.00;;;;;-146.80;100.00;64830.25;5090255;27;45414;-57
2021/07/12 04:30:46;;;;;;;;;6.00;4.50;;;;;-146.80;100.00;64830.25;5056342;28;45424;-55
2021/07/12 04:33:11;;;;;;;;;4.75;4.75;;;;;-146.80;100.00;64830.25;5057786;28;45497;-51
2021/07/12 04:35:37;;;;;;;;;8.25;5.50;;;;;-146.80;100.00;64830.25;5057462;28;46446;-52
2021/07/12 04:38:02;;;;;;;;;5.25;4.00;;;;;-146.80;100.00;64830.25;5072316;28;45460;-58
2021/07/12 04:40:28;;;;;;;;;5.50;4.25;;;;;-146.80;100.00;64830.25;5058139;28;45322;-56
2021/07/12 04:42:53;;;;;;;;;7.00;5.75;;;;;-146.80;100.00;64830.25;5057763;28;45283;-56
2021/07/12 04:45:19;;;;;;;;;6.25;4.50;;;;;-146.80;100.00;64830.25;5057251;28;46125;-57
2021/07/12 04:47:44;;;;;;;;;6.00;5.00;;;;;-146.80;100.00;64830.25;5057089;28;45417;-54
2021/07/12 04:50:10;;;;;;;;;5.00;5.00;;;;;-146.80;100.00;64830.25;5057508;28;45456;-54
2021/07/12 04:52:36;;;;;;;;;4.75;4.50;;;;;-146.80;100.00;64830.25;5057635;28;45411;-51
2021/07/12 04:55:06;;;;;;;;;9.75;8.25;;;;;-146.80;100.00;64830.25;5056890;28;46221;-56
2021/07/12 04:57:32;;;;;;;;;6.75;5.00;;;;;-146.80;100.00;64830.25;5089830;27;45778;-57
2021/07/12 04:59:57;;;;;;;;;7.50;5.50;;;;;-146.80;100.00;64830.25;5057498;28;45455;-56
2021/07/12 05:02:23;;;;;;;;;4.75;4.75;;;;;-146.80;100.00;64830.25;5057533;28;45282;-57
2021/07/12 05:04:48;;;;;;;;;6.25;4.25;;;;;-146.80;100.00;64830.25;5056851;28;47393;-57
2021/07/12 05:07:14;;;;;;;;;7.25;7.25;;;;;-146.80;100.00;64830.25;5057013;28;45231;-57
2021/07/12 05:09:40;;;;;;;;;5.00;5.00;;;;;-146.80;100.00;64830.25;5057007;28;45312;-56
2021/07/12 05:12:09;;;;;;;;;6.00;5.00;;;;;-146.80;100.00;64830.25;5057180;28;45366;-52
2021/07/12 05:14:38;;;;;;;;;6.50;5.25;;;;;-146.80;100.00;64830.25;5056512;28;46160;-55
2021/07/12 05:17:04;;;;;;;;;6.25;5.25;;;;;-146.80;100.00;64830.25;5056629;28;45269;-55
2021/07/12 05:19:30;;;;;;;;;4.75;4.75;;;;;-146.80;100.00;64830.25;5056942;28;45303;-53
2021/07/12 05:21:56;;;;;;;;;4.00;4.00;;;;;-146.80;100.00;64830.25;5057194;28;45375;-54
2021/07/12 05:24:22;;;;;;;;;5.00;5.00;;;;;-146.80;100.00;64830.25;5056675;28;46377;-56
2021/07/12 05:26:47;;;;;;;;;8.00;5.25;;;;;-146.80;100.00;64830.25;5056708;28;45385;-52
2021/07/12 05:29:13;;;;;;;;;5.00;5.00;;;;;-146.80;100.00;64830.25;5056778;28;45393;-57
2021/07/12 05:31:38;;;;;;;;;6.00;6.00;;;;;-146.80;100.00;64830.25;5056975;28;45417;-48
2021/07/12 05:34:04;;;;;;;;;5.50;5.50;;;;;-146.80;100.00;64830.25;5056234;28;46044;-54
2021/07/12 05:36:29;;;;;;;;;6.25;5.00;;;;;-146.80;100.00;64830.25;5055381;28;46224;-55
2021/07/12 05:38:55;;;;;;;;;4.50;4.50;;;;;-146.80;100.00;64830.25;5056503;28;45337;-56
2021/07/12 05:41:20;;;;;;;;;9.25;7.00;;;;;-146.80;100.00;64830.25;5056653;28;45358;-59
2021/07/12 05:43:46;;;;;;;;;6.50;4.50;;;;;-146.80;100.00;64830.25;5056297;28;46765;-56
2021/07/12 05:46:11;;;;;;;;;4.00;4.00;;;;;-146.80;100.00;64830.25;5056394;28;45883;-57
2021/07/12 05:48:36;;;;;;;;;6.75;5.75;;;;;-146.80;100.00;64830.25;5056242;28;45520;-57
2021/07/12 05:51:02;;;;;;;;;5.00;5.00;;;;;-146.80;100.00;64830.25;5055438;28;45464;-52
2021/07/12 05:53:27;;;;;;;;;7.25;7.25;;;;;-146.80;100.00;64830.25;5056484;28;45654;-57
2021/07/12 05:55:53;;;;;;;;;6.00;6.00;;;;;-146.80;100.00;64830.25;5088622;27;45289;-56
2021/07/12 05:58:18;;;;;;;;;6.75;6.50;;;;;-146.80;100.00;64830.25;5056271;28;45298;-55
2021/07/12 06:00:44;;;;;;;;;7.25;7.25;;;;;-146.80;100.00;64830.25;5089271;27;45510;-54
2021/07/12 06:03:09;;;;;;;;;6.50;6.00;;;;;-146.80;100.00;64830.25;5054586;28;45413;-58
2021/07/12 06:05:35;;;;;;;;;7.00;5.75;;;;;-146.80;100.00;64830.25;5056131;28;45330;-58
2021/07/12 06:08:01;;;;;;;;;7.25;6.75;;;;;-146.80;100.00;64830.25;5056614;28;45334;-58
2021/07/12 06:10:26;;;;;;;;;6.00;6.00;;;;;-146.80;100.00;64830.25;5056244;28;45276;-56
2021/07/12 06:12:52;;;;;;;;;9.50;6.25;;;;;-146.80;100.00;64830.25;5055944;28;46010;-55
2021/07/12 06:15:18;;;;;;;;;5.00;5.00;;;;;-146.80;100.00;64830.25;5055915;28;45344;-57
2021/07/12 06:17:45;;;;;;;;;6.75;5.50;;;;;-146.80;100.00;64830.25;5056042;28;45354;-58
2021/07/12 06:20:14;;;;;;;;;5.75;5.25;;;;;-146.80;100.00;64830.25;5088708;27;45395;-59
2021/07/12 06:22:39;;;;;;;;;8.50;7.75;;;;;-146.80;100.00;64830.25;5054351;28;47271;-57
2021/07/12 06:25:05;;;;;;;;;7.50;6.25;;;;;-146.80;100.00;64830.25;5055563;28;45255;-53
2021/07/12 06:27:31;;;;;;;;;8.00;7.00;;;;;-146.80;100.00;64830.25;5088671;27;45402;-57
2021/07/12 06:29:56;;;;;;;;;10.75;10.75;;;;;-146.80;100.00;64830.25;5055920;28;45223;-57
2021/07/12 06:32:22;;;;;;;;;10.50;9.00;;;;;-146.80;100.00;64830.25;5055638;28;45983;-54
2021/07/12 06:34:47;;;;;;;;;7.00;7.00;;;;;-146.80;100.00;64830.25;5088185;27;45800;-57
2021/07/12 06:37:13;;;;;;;;;9.00;7.25;;;;;-146.80;100.00;64830.25;5056014;28;45280;-56
2021/07/12 06:39:39;;;;;;;;;7.50;6.00;;;;;-146.80;100.00;64830.25;5056018;28;45510;-58
2021/07/12 06:42:05;;;;;;;;;8.75;7.00;;;;;-146.80;100.00;64830.25;5055094;28;46389;-54
2021/07/12 06:44:30;;;;;;;;;10.00;7.25;;;;;-146.80;100.00;64830.25;5055480;28;45443;-52
2021/07/12 06:46:56;;;;;;;;;9.75;8.00;;;;;-146.80;100.00;64830.25;5055638;28;45348;-53
2021/07/12 06:49:21;;;;;;;;;7.00;6.75;;;;;-146.80;100.00;64830.25;5054606;28;45498;-54
2021/07/12 06:51:48;;;;;;;;;9.75;8.00;;;;;-146.80;100.00;64830.25;5055747;28;45371;-55
2021/07/12 06:54:13;;;;;;;;;7.25;6.25;;;;;-146.80;100.00;64830.25;5053656;28;45330;-55
2021/07/12 06:56:39;;;;;;;;;8.00;6.00;;;;;-146.80;100.00;64830.25;5055297;28;45376;-59
2021/07/12 06:59:04;;;;;;;;;12.75;9.75;;;;;-146.80;100.00;64830.25;5056191;28;45539;-60
2021/07/12 07:01:30;;;;;;;;;10.00;7.50;;;;;-146.80;100.00;64830.25;5058204;28;46759;-62
2021/07/12 07:03:55;;;;;;;;;7.75;7.25;;;;;-146.80;100.00;64830.25;5060773;28;45256;-63
2021/07/12 07:06:21;;;;;;;;;10.75;8.00;;;;;-146.80;100.00;64830.25;5062250;28;45185;-56
2021/07/12 07:08:46;;;;;;;;;8.50;6.75;;;;;-146.80;100.00;64830.25;5062221;28;45547;-59
2021/07/12 07:11:12;;;;;;;;;11.50;11.50;;;;;-146.80;100.00;64830.25;5060543;28;46223;-59
2021/07/12 07:13:37;;;;;;;;;10.75;9.00;;;;;-146.80;100.00;64830.25;5061962;28;45246;-59
2021/07/12 07:16:04;;;;;;;;;9.25;7.50;;;;;-146.80;100.00;64830.25;5062525;28;45520;-61
2021/07/12 07:18:30;;;;;;;;;8.00;8.00;;;;;-146.80;100.00;64830.25;5062281;28;45380;-61
2021/07/12 07:20:55;;;;;;;;;10.25;10.25;;;;;-146.80;100.00;64830.25;5061704;28;46401;-56
2021/07/12 07:23:21;;;;;;;;;11.00;11.00;;;;;-146.80;100.00;64830.25;5094689;27;45386;-58
2021/07/12 07:25:46;;;;;;;;;11.00;8.00;;;;;-146.80;100.00;64830.25;5062100;28;45406;-58
2021/07/12 07:28:11;;;;;;;;;10.50;9.25;;;;;-146.80;100.00;64830.25;5061992;28;45639;-60
2021/07/12 07:30:39;;;;;;;;;9.00;9.00;;;;;-146.80;100.00;64830.25;5061728;28;47518;-59
2021/07/12 07:33:04;;;;;;;;;13.00;11.00;;;;;-146.80;100.00;64830.25;5060912;28;46213;-57
2021/07/12 07:35:29;;;;;;;;;9.75;9.00;;;;;-146.80;100.00;64830.25;5061930;28;45382;-58
2021/07/12 07:37:55;;;;;;;;;11.50;9.75;;;;;-146.80;100.00;64830.25;5062034;28;45334;-58
2021/07/12 07:40:21;;;;;;;;;8.25;8.25;;;;;-146.80;100.00;64830.25;5061615;28;45325;-57
2021/07/12 07:42:47;;;;;;;;;11.00;10.00;;;;;-146.80;100.00;64830.25;5061694;28;45786;-59
2021/07/12 07:45:13;;;;;;;;;24.00;20.50;;;;;-146.80;100.00;64830.25;5061849;28;45394;-57
2021/07/12 07:47:40;;;;;;;;;9.50;7.50;;;;;-146.80;100.00;64830.25;5061359;28;45456;-56
2021/07/12 07:50:08;;;;;;;;;12.50;10.75;;;;;-146.80;100.00;64830.25;5061702;28;46367;-58
2021/07/12 07:52:34;;;;;;;;;10.25;10.25;;;;;-146.80;100.00;64830.25;5094074;27;45441;-59
2021/07/12 07:55:00;;;;;;;;;9.25;9.25;;;;;-146.80;100.00;64830.25;5061815;28;45241;-59
2021/07/12 07:57:25;;;;;;;;;14.75;9.50;;;;;-146.80;100.00;64830.25;5061882;28;45599;-58
2021/07/12 07:59:51;;;;;;;;;9.00;9.00;;;;;-146.80;100.00;64830.25;5061294;28;45767;-57
2021/07/12 08:02:16;;;;;;;;;11.75;8.25;;;;;-146.80;100.00;64830.25;5060285;28;45350;-59
2021/07/12 08:04:42;;;;;;;;;12.00;11.25;;;;;-146.80;100.00;64830.25;5061736;28;45340;-59
2021/07/12 08:07:07;;;;;;;;;13.00;11.25;;;;;-146.80;100.00;64830.25;5060775;28;45220;-59
2021/07/12 08:09:33;;;;;;;;;11.25;10.75;;;;;-146.80;100.00;64830.25;5059931;28;47485;-58
2021/07/12 08:12:00;;;;;;;;;12.75;11.25;;;;;-146.80;100.00;64830.25;5060257;28;45402;-59
2021/07/12 08:14:25;;;;;;;;;12.50;11.00;;;;;-146.80;100.00;64830.25;5057475;28;45453;-59
2021/07/12 08:16:51;;;;;;;;;12.25;10.75;;;;;-146.80;100.00;64830.25;5058016;28;45393;-58
2021/07/12 08:19:16;;;;;;;;;14.00;11.50;;;;;-146.80;100.00;64830.25;5057574;28;46318;-59
2021/07/12 08:21:44;;;;;;;;;15.50;13.00;;;;;-146.80;100.00;64830.25;5057660;28;45508;-60
2021/07/12 08:24:09;;;;;;;;;13.00;12.25;;;;;-146.80;100.00;64830.25;5057885;28;45275;-60
2021/07/12 08:26:35;;;;;;;;;10.25;8.00;;;;;-146.80;100.00;64830.25;5058184;28;45544;-59
2021/07/12 08:29:00;;;;;;;;;20.50;14.25;;;;;-146.80;100.00;64830.25;5057608;28;46350;-59
2021/07/12 08:31:26;;;;;;;;;14.50;11.75;;;;;-146.80;100.00;64830.25;5057362;28;45216;-58
2021/07/12 08:33:51;;;;;;;;;9.00;9.00;;;;;-146.80;100.00;64830.25;5056532;28;45281;-59
2021/07/12 08:36:18;;;;;;;;;11.00;8.50;;;;;-146.80;100.00;64830.25;5057654;28;45324;-59
2021/07/12 08:38:44;;;;;;;;;9.50;9.00;;;;;-146.80;100.00;64830.25;5090102;27;46314;-59
2021/07/12 08:41:10;;;;;;;;;11.75;10.50;;;;;-146.80;100.00;64830.25;5057892;28;45768;-58
2021/07/12 08:43:36;;;;;;;;;17.75;14.25;;;;;-146.80;100.00;64830.25;5073662;27;45453;-59
2021/07/12 08:46:01;;;;;;;;;16.25;13.25;;;;;-146.80;100.00;64830.25;5057880;28;45644;-60
2021/07/12 08:48:27;;;;;;;;;8.00;8.00;;;;;-146.80;100.00;64830.25;5057203;28;45475;-59
2021/07/12 08:50:52;;;;;;;;;13.50;10.25;;;;;-146.80;100.00;64830.25;5056074;28;45438;-59
2021/07/12 08:53:18;;;;;;;;;4.50;0.00;;;;;-146.80;100.00;64830.25;5057578;28;45338;-60
2021/07/12 08:55:45;;;;;;;;;16.00;13.75;;;;;-146.80;100.00;64830.25;5056191;28;45716;-59
2021/07/12 08:58:27;;;;;;;;;16.25;16.25;;;;;-146.80;100.00;64830.25;5057283;28;46044;-59
2021/07/12 09:01:03;;;;;;;;;13.00;12.00;;;;;-146.80;100.00;64830.25;5056019;28;45400;-59
2021/07/12 09:03:30;;;;;;;;;18.00;16.75;;;;;-146.80;100.00;64830.25;5057122;28;45273;-57
2021/07/12 09:06:05;;;;;;;;;15.50;14.25;;;;;-146.80;100.00;64830.25;5057188;28;45291;-59
2021/07/12 09:08:47;;;;;;;;;14.25;13.00;;;;;-146.80;100.00;64830.25;5072521;28;47985;-59
2021/07/12 09:11:43;;;;;;;;;14.75;12.50;;;;;-146.80;100.00;64830.25;5072489;28;45358;-58
2021/07/12 09:14:13;;;;;;;;;40.50;33.50;;;;;-146.80;100.00;64830.25;5089823;27;45321;-58
2021/07/12 09:16:46;;;;;;;;;15.00;12.25;;;;;-146.80;100.00;64830.25;5057399;28;45521;-58
2021/07/12 09:19:23;;;;;;;;;17.75;14.50;;;;;-146.80;100.00;64830.25;5072470;28;47502;-59
2021/07/12 09:21:50;;;;;;;;;13.25;13.00;;;;;-146.80;100.00;64830.25;5057096;28;45481;-59
2021/07/12 09:24:16;;;;;;;;;13.50;11.75;;;;;-146.80;100.00;64830.25;5056774;28;45426;-60
2021/07/12 09:26:44;;;;;;;;;12.00;12.00;;;;;-146.80;100.00;64830.25;5057299;28;45307;-58
2021/07/12 09:29:21;;;;;;;;;17.00;16.00;;;;;-146.80;100.00;64830.25;5089650;27;46285;-58
2021/07/12 09:31:48;;;;;;;;;15.50;13.50;;;;;-146.80;100.00;64830.25;5056438;28;45338;-60
2021/07/12 09:34:15;;;;;;;;;13.75;13.50;;;;;-146.80;100.00;64830.25;5054899;28;45319;-59
2021/07/12 09:36:42;;;;;;;;;15.25;14.25;;;;;-146.80;100.00;64830.25;5056767;28;45367;-59
2021/07/12 09:39:29;;;;;;;;;14.25;13.50;;;;;-146.80;100.00;64830.25;5056447;28;46032;-58
2021/07/12 09:42:17;;;;;;;;;11.75;10.75;;;;;-146.80;100.00;64830.25;5088862;27;45401;-60
2021/07/12 09:44:45;;;;;;;;;17.75;15.00;;;;;-146.80;100.00;64830.25;5056983;28;45418;-58
2021/07/12 09:47:14;;;;;;;;;14.00;12.75;;;;;-146.80;100.00;64830.25;5056944;28;45247;-59
2021/07/12 09:49:40;;;;;;;;;14.75;11.50;;;;;-146.80;100.00;64830.25;5056680;28;46231;-60
2021/07/12 09:52:10;;;;;;;;;12.00;11.25;;;;;-146.80;100.00;64830.25;5055069;28;45281;-59
2021/07/12 09:54:37;;;;;;;;;11.75;11.75;;;;;-146.80;100.00;64830.25;5088926;27;45443;-59
2021/07/12 09:57:17;;;;;;;;;12.25;10.00;;;;;-146.80;100.00;64830.25;5055259;28;45418;-57
2021/07/12 10:00:00;;;;;;;;;10.50;10.00;;;;;-146.80;100.00;64830.25;5056446;28;45346;-58
2021/07/12 10:02:28;;;;;;;;;14.00;13.25;;;;;-146.80;100.00;64830.25;5056081;28;45227;-59
2021/07/12 10:05:00;;;;;;;;;14.50;10.75;;;;;-146.80;100.00;64830.25;5055185;28;45413;-59
2021/07/12 10:07:26;;;;;;;;;10.00;8.75;;;;;-146.80;100.00;64830.25;5055140;28;45393;-60
2021/07/12 10:09:52;;;;;;;;;12.25;12.00;;;;;-146.80;100.00;64830.25;5056048;27;46018;-59
2021/07/12 10:12:18;;;;;;;;;11.25;10.50;;;;;-146.80;100.00;64830.25;5088627;27;45399;-59
2021/07/12 10:14:44;;;;;;;;;9.50;6.75;;;;;-146.80;100.00;64830.25;5056174;28;45501;-60
2021/07/12 10:17:11;;;;;;;;;7.75;7.75;;;;;-146.80;100.00;64830.25;5055833;28;45287;-59
2021/07/12 10:19:37;;;;;;;;;8.50;8.00;;;;;-146.80;100.00;64830.25;5055853;28;46006;-59
2021/07/12 10:22:05;;;;;;;;;7.25;7.25;;;;;-146.80;100.00;64830.25;5055507;28;45387;-61
2021/07/12 10:24:37;;;;;;;;;9.00;9.00;;;;;-146.80;100.00;64830.25;5054692;28;45547;-64
2021/07/12 10:27:03;;;;;;;;;11.25;11.25;;;;;-146.80;100.00;64830.25;5055884;28;45587;-58
2021/07/12 10:29:36;;;;;;;;;8.50;7.50;;;;;-146.80;100.00;64830.25;5055456;27;46841;-59
2021/07/12 10:32:18;;;;;;;;;7.50;7.50;;;;;-146.80;100.00;64830.25;5055643;28;45449;-59
2021/07/12 10:34:47;;;;;;;;;11.00;10.75;;;;;-146.80;100.00;64830.25;5056112;28;45647;-58
2021/07/12 10:37:34;;;;;;;;;12.50;11.75;;;;;-146.80;100.00;64830.25;5055604;28;45338;-58
2021/07/12 10:40:09;;;;;;;;;13.00;10.25;;;;;-146.80;100.00;64830.25;5055688;28;45308;-57
2021/07/12 10:42:44;;;;;;;;;12.00;12.00;;;;;-146.80;100.00;64830.25;5055288;28;45371;-59
2021/07/12 10:45:27;;;;;;;;;12.50;11.50;;;;;-146.80;100.00;64830.25;5056279;28;45257;-61
2021/07/12 10:48:04;;;;;;;;;14.25;13.25;;;;;-146.80;100.00;64830.25;5055634;28;45451;-58
2021/07/12 10:50:51;;;;;;;;;14.25;14.00;;;;;-146.80;100.00;64830.25;5055245;28;46355;-59
2021/07/12 10:53:22;;;;;;;;;15.00;14.75;;;;;-146.80;100.00;64830.25;5056005;28;45303;-60
2021/07/12 10:55:57;;;;;;;;;15.50;14.50;;;;;-146.80;100.00;64830.25;5071244;28;45383;-60
2021/07/12 10:58:29;;;;;;;;;37.25;32.50;;;;;-146.80;100.00;64830.25;5055657;28;45541;-58
2021/07/12 11:01:00;;;;;;;;;27.00;27.00;;;;;-146.80;100.00;64830.25;5055158;28;46530;-60
2021/07/12 11:03:46;;;;;;;;;19.00;16.25;;;;;-146.80;100.00;64830.25;5055397;28;45238;-57
2021/07/12 11:06:12;;;;;;;;;16.00;15.00;;;;;-146.80;100.00;64830.25;5055399;28;45289;-59
2021/07/12 11:08:45;;;;;;;;;16.50;13.00;;;;;-146.80;100.00;64830.25;5071051;28;45481;-58
2021/07/12 11:11:32;;;;;;;;;14.25;13.00;;;;;-146.80;100.00;64830.25;5055302;28;45677;-58